Terminal Aerodrome Forecast
Issued by NWS Sterling, VA

Home | Current Version | Previous Version | Text Only | Print | Product List | Glossary On
Versions: 1 2 3 4 5 6 7 8 9 10 11 12 13 14 15 16 17 18 19 20 21 22 23 24 25 26 27 28
000
FTUS41 KLWX 072049 AAA
TAFIAD
TAF AMD
KIAD 072049Z 0721/0824 20007KT P6SM SCT040
     FM080300 21006KT P6SM BKN050
     FM081600 23007KT P6SM -SHRA BKN090
     FM081900 24009KT P6SM -SHRA VCTS OVC050CB=

USA.gov is the U.S. government's official web portal to all federal, state and local government web resources and services.